Time;durP1;ratioP1;P1;durP2;ratioP2;P2;SDS_P1;SDS_P2;PMS_P1;PMS_P2;Temp;Humidity;BMP_temperature;BMP_pressure;BME280_temperature;BME280_humidity;BME280_pressure;Samples;Min_cycle;Max_cycle;Signal;HPM_P1;HPM_P2
2021/09/14 00:01:21;;;;;;;10.90;9.63;;;;;;;;;;5006567;28;20042;-46
2021/09/14 00:03:49;;;;;;;11.30;10.10;;;;;;;;;;5008822;28;20053;-45
2021/09/14 00:06:15;;;;;;;12.65;9.95;;;;;;;;;;5009757;28;20050;-44
2021/09/14 00:08:42;;;;;;;13.02;10.63;;;;;;;;;;5011711;28;20132;-45
2021/09/14 00:11:09;;;;;;;11.40;10.20;;;;;;;;;;5011855;28;20183;-46
2021/09/14 00:13:36;;;;;;;12.48;10.93;;;;;;;;;;4999614;28;20141;-44
2021/09/14 00:16:03;;;;;;;10.70;9.60;;;;;;;;;;4992205;28;20081;-48
2021/09/14 00:18:30;;;;;;;13.05;11.65;;;;;;;;;;4992168;28;20053;-46
2021/09/14 00:20:57;;;;;;;13.63;11.75;;;;;;;;;;4991031;28;20491;-49
2021/09/14 00:23:24;;;;;;;13.25;10.80;;;;;;;;;;4991324;28;20186;-47
2021/09/14 00:25:51;;;;;;;11.63;10.02;;;;;;;;;;4991916;28;20074;-44
2021/09/14 00:28:17;;;;;;;13.63;11.73;;;;;;;;;;4992055;28;20517;-47
2021/09/14 00:30:44;;;;;;;11.98;10.68;;;;;;;;;;5006944;28;20074;-46
2021/09/14 00:33:16;;;;;;;12.57;10.90;;;;;;;;;;4989822;28;20050;-49
2021/09/14 00:35:43;;;;;;;12.65;11.35;;;;;;;;;;4991690;28;20042;-48
2021/09/14 00:38:10;;;;;;;12.18;10.85;;;;;;;;;;4991913;28;20507;-48
2021/09/14 00:40:37;;;;;;;12.40;11.10;;;;;;;;;;4990450;28;20074;-49
2021/09/14 00:43:03;;;;;;;12.45;11.20;;;;;;;;;;4999489;28;20042;-47
2021/09/14 00:45:30;;;;;;;12.20;10.82;;;;;;;;;;4991393;28;20050;-48
2021/09/14 00:47:58;;;;;;;13.32;11.93;;;;;;;;;;5010602;28;20049;-46
2021/09/14 00:50:24;;;;;;;12.98;11.50;;;;;;;;;;5006465;28;20089;-46
2021/09/14 00:52:52;;;;;;;12.63;10.57;;;;;;;;;;5006594;28;20477;-45
2021/09/14 00:55:19;;;;;;;14.50;11.65;;;;;;;;;;4992856;28;20120;-49
2021/09/14 00:57:46;;;;;;;11.60;10.18;;;;;;;;;;5011291;28;20133;-47
2021/09/14 01:00:13;;;;;;;11.80;10.60;;;;;;;;;;5005673;28;20042;-47
2021/09/14 01:02:40;;;;;;;12.23;10.80;;;;;;;;;;4991542;28;20455;-45
2021/09/14 01:05:07;;;;;;;12.27;10.98;;;;;;;;;;5016090;28;20070;-50
2021/09/14 01:07:34;;;;;;;11.50;10.30;;;;;;;;;;4990317;28;20050;-47
2021/09/14 01:10:01;;;;;;;13.60;10.65;;;;;;;;;;4990184;28;20119;-50
2021/09/14 01:12:29;;;;;;;11.82;10.63;;;;;;;;;;4990373;28;20645;-49
2021/09/14 01:14:56;;;;;;;11.60;9.90;;;;;;;;;;4989493;28;20196;-46
2021/09/14 01:17:27;;;;;;;12.93;11.52;;;;;;;;;;4992120;28;20046;-48
2021/09/14 01:19:54;;;;;;;12.35;11.05;;;;;;;;;;4996351;28;20045;-46
2021/09/14 01:22:28;;;;;;;13.05;10.63;;;;;;;;;;5013709;28;20034;-48
2021/09/14 01:24:56;;;;;;;14.55;11.50;;;;;;;;;;5008980;28;20045;-47
2021/09/14 01:27:23;;;;;;;13.60;10.90;;;;;;;;;;4995207;28;20043;-46
2021/09/14 01:32:36;;;;;;;11.30;10.20;;;;;;;;;;5009661;28;20092;-46
2021/09/14 01:35:11;;;;;;;12.07;10.88;;;;;;;;;;4992746;28;20078;-47
2021/09/14 01:37:43;;;;;;;14.48;11.02;;;;;;;;;;5002171;28;20439;-47
2021/09/14 01:40:10;;;;;;;12.48;11.18;;;;;;;;;;5013248;28;20049;-46
2021/09/14 01:42:41;;;;;;;12.68;11.00;;;;;;;;;;5028550;28;20041;-49
2021/09/14 01:45:09;;;;;;;12.15;10.73;;;;;;;;;;5017168;28;20038;-48
2021/09/14 01:47:36;;;;;;;14.38;11.02;;;;;;;;;;4993625;28;20563;-46
2021/09/14 01:50:04;;;;;;;12.60;11.30;;;;;;;;;;4993733;28;20594;-44
2021/09/14 01:52:33;;;;;;;12.82;11.43;;;;;;;;;;5018227;28;20407;-47
2021/09/14 01:55:03;;;;;;;12.10;10.88;;;;;;;;;;5012105;28;20077;-45
2021/09/14 01:57:33;;;;;;;11.82;10.38;;;;;;;;;;5014157;28;20111;-46
2021/09/14 02:00:05;;;;;;;12.80;10.90;;;;;;;;;;5014089;28;20104;-46
2021/09/14 02:05:13;;;;;;;12.18;10.88;;;;;;;;;;5007127;28;20037;-47
2021/09/14 02:58:37;;;;;;;11.77;10.35;;;;;;;;;;5013036;28;20112;-45
2021/09/14 02:59:34;;;;;;;12.45;10.68;;;;;;;;;;5007722;28;20419;-46
2021/09/14 03:02:02;;;;;;;11.18;9.98;;;;;;;;;;4995438;28;20062;-47
2021/09/14 03:04:29;;;;;;;13.60;10.75;;;;;;;;;;4975213;28;20046;-45
2021/09/14 03:06:56;;;;;;;11.20;9.95;;;;;;;;;;4992240;28;20070;-48
2021/09/14 03:09:38;;;;;;;12.25;10.95;;;;;;;;;;4992071;28;20619;-46
2021/09/14 03:12:06;;;;;;;13.73;10.30;;;;;;;;;;5008345;28;20152;-51
2021/09/14 03:14:35;;;;;;;16.40;10.43;;;;;;;;;;4994859;28;20134;-48
2021/09/14 03:17:02;;;;;;;11.57;10.38;;;;;;;;;;4991831;28;20050;-47
2021/09/14 03:19:29;;;;;;;12.25;10.25;;;;;;;;;;4998242;28;20044;-47
2021/09/14 03:21:59;;;;;;;14.88;10.60;;;;;;;;;;5009863;28;20096;-42
2021/09/14 03:24:26;;;;;;;12.25;10.95;;;;;;;;;;4991240;28;20050;-42
2021/09/14 03:26:57;;;;;;;12.23;10.23;;;;;;;;;;4975648;28;20061;-42
2021/09/14 03:29:24;;;;;;;11.63;10.27;;;;;;;;;;4993088;28;20125;-42
2021/09/14 03:31:51;;;;;;;11.32;9.70;;;;;;;;;;4998231;28;20050;-42
2021/09/14 03:34:18;;;;;;;10.18;9.18;;;;;;;;;;4990748;28;20043;-42
2021/09/14 03:36:48;;;;;;;10.88;9.73;;;;;;;;;;5001134;28;20069;-47
2021/09/14 03:39:14;;;;;;;15.43;10.48;;;;;;;;;;5011438;28;20156;-42
2021/09/14 03:41:41;;;;;;;11.77;10.52;;;;;;;;;;5017886;28;20091;-43
2021/09/14 03:44:09;;;;;;;12.77;10.50;;;;;;;;;;5004266;28;20088;-43
2021/09/14 03:46:35;;;;;;;11.85;10.50;;;;;;;;;;4992834;28;20523;-44
2021/09/14 03:49:03;;;;;;;12.38;10.40;;;;;;;;;;4991419;28;20038;-43
2021/09/14 03:51:36;;;;;;;;;;;;;;;;;;4993402;28;20050;-44
2021/09/14 03:54:03;;;;;;;13.30;10.63;;;;;;;;;;5010832;28;20020;-45
2021/09/14 03:56:29;;;;;;;10.98;9.80;;;;;;;;;;5011110;28;20042;-43
2021/09/14 03:58:56;;;;;;;11.38;9.60;;;;;;;;;;5012090;28;20527;-44
2021/09/14 04:01:24;;;;;;;9.40;8.40;;;;;;;;;;4993595;28;20038;-41
2021/09/14 04:03:56;;;;;;;11.55;9.50;;;;;;;;;;4991291;28;20060;-48
2021/09/14 04:09:03;;;;;;;14.80;10.10;;;;;;;;;;5010786;28;20483;-44
2021/09/14 04:11:39;;;;;;;11.13;9.65;;;;;;;;;;5011868;28;20064;-43
2021/09/14 04:14:06;;;;;;;13.30;10.50;;;;;;;;;;5006057;28;20504;-41
2021/09/14 04:16:33;;;;;;;13.60;10.02;;;;;;;;;;4992220;28;20077;-46
2021/09/14 04:19:00;;;;;;;11.93;10.55;;;;;;;;;;4991049;28;20077;-42
2021/09/14 04:21:27;;;;;;;11.75;10.15;;;;;;;;;;4990789;28;20492;-45
2021/09/14 04:23:54;;;;;;;15.20;10.40;;;;;;;;;;5003143;28;20496;-45
2021/09/14 04:26:24;;;;;;;12.73;10.45;;;;;;;;;;4991051;28;20069;-42
2021/09/14 04:28:51;;;;;;;12.57;10.32;;;;;;;;;;5009391;28;20040;-41
2021/09/14 04:31:18;;;;;;;11.15;9.18;;;;;;;;;;5011750;28;20052;-45
2021/09/14 04:33:46;;;;;;;11.65;8.43;;;;;;;;;;4989776;28;20050;-42
2021/09/14 04:36:13;;;;;;;12.48;9.18;;;;;;;;;;4991278;28;20468;-40
2021/09/14 04:38:42;;;;;;;11.10;9.85;;;;;;;;;;4991323;28;20500;-44
2021/09/14 04:41:10;;;;;;;10.82;9.38;;;;;;;;;;4994901;28;20065;-40
2021/09/14 04:43:37;;;;;;;10.60;8.65;;;;;;;;;;5006084;28;20081;-43
2021/09/14 04:46:05;;;;;;;13.30;10.13;;;;;;;;;;5007020;28;20069;-41
2021/09/14 04:48:33;;;;;;;11.60;10.40;;;;;;;;;;4990826;28;20093;-45
2021/09/14 04:51:00;;;;;;;17.65;10.48;;;;;;;;;;4994300;28;20045;-40
2021/09/14 04:53:27;;;;;;;12.90;10.27;;;;;;;;;;5012727;28;20115;-45
2021/09/14 04:55:53;;;;;;;11.95;9.93;;;;;;;;;;5015251;28;20137;-44
2021/09/14 04:58:20;;;;;;;13.57;9.82;;;;;;;;;;5015272;28;20042;-46
2021/09/14 05:00:47;;;;;;;20.00;16.83;;;;;;;;;;5013246;28;20093;-44
2021/09/14 05:03:18;;;;;;;12.95;10.95;;;;;;;;;;5014456;28;20068;-44
2021/09/14 05:05:45;;;;;;;12.68;10.57;;;;;;;;;;5000877;28;20049;-47
2021/09/14 05:08:13;;;;;;;11.70;9.18;;;;;;;;;;4994635;28;20449;-44
2021/09/14 05:10:40;;;;;;;13.02;10.55;;;;;;;;;;4994401;28;20419;-45
2021/09/14 05:13:08;;;;;;;12.48;10.20;;;;;;;;;;4994630;28;20046;-47
2021/09/14 05:15:36;;;;;;;15.15;10.07;;;;;;;;;;5009852;28;20046;-44
2021/09/14 05:18:17;;;;;;;12.77;9.73;;;;;;;;;;4999612;28;20053;-45
2021/09/14 05:20:47;;;;;;;10.73;8.93;;;;;;;;;;5013538;28;20110;-44
2021/09/14 05:23:15;;;;;;;12.75;10.35;;;;;;;;;;5009196;28;20050;-44
2021/09/14 05:25:43;;;;;;;13.57;8.57;;;;;;;;;;5014064;28;20042;-45
2021/09/14 05:28:13;;;;;;;12.52;10.13;;;;;;;;;;5013343;28;20042;-46
2021/09/14 05:30:40;;;;;;;14.73;10.45;;;;;;;;;;5010330;28;20121;-46
2021/09/14 05:33:09;;;;;;;12.70;9.38;;;;;;;;;;5007216;28;20061;-45
2021/09/14 05:35:56;;;;;;;13.23;10.32;;;;;;;;;;5013092;28;20049;-44
2021/09/14 05:38:24;;;;;;;10.32;8.45;;;;;;;;;;5036856;28;20359;-45
2021/09/14 05:40:55;;;;;;;10.00;8.63;;;;;;;;;;5019800;28;20041;-46
2021/09/14 05:43:26;;;;;;;12.13;8.60;;;;;;;;;;5009318;28;20542;-44
2021/09/14 05:45:54;;;;;;;13.57;9.00;;;;;;;;;;4993652;28;20042;-47
2021/09/14 05:48:24;;;;;;;11.40;8.77;;;;;;;;;;4993769;28;20046;-46
2021/09/14 05:50:51;;;;;;;14.38;9.30;;;;;;;;;;4993676;28;20096;-48
2021/09/14 05:53:18;;;;;;;13.95;10.38;;;;;;;;;;5003604;28;20046;-46
2021/09/14 05:55:51;;;;;;;12.80;9.52;;;;;;;;;;4993725;28;20130;-46
2021/09/14 05:58:18;;;;;;;12.38;9.95;;;;;;;;;;4995051;28;20042;-47
2021/09/14 06:00:45;;;;;;;10.48;9.15;;;;;;;;;;5011610;28;20046;-46
2021/09/14 06:03:12;;;;;;;14.25;9.20;;;;;;;;;;5013137;28;20464;-46
2021/09/14 06:05:40;;;;;;;10.90;9.00;;;;;;;;;;5009312;28;20065;-46
2021/09/14 06:08:07;;;;;;;11.35;8.68;;;;;;;;;;5006549;28;20048;-47
2021/09/14 06:10:39;;;;;;;11.50;8.68;;;;;;;;;;5009402;28;20038;-47
2021/09/14 06:13:09;;;;;;;10.05;8.43;;;;;;;;;;5008554;28;20050;-47
2021/09/14 06:15:36;;;;;;;11.00;8.43;;;;;;;;;;5006541;28;20488;-45
2021/09/14 06:18:04;;;;;;;9.60;8.00;;;;;;;;;;5008346;28;20061;-45
2021/09/14 06:20:33;;;;;;;10.15;7.68;;;;;;;;;;5010536;28;20039;-43
2021/09/14 06:23:00;;;;;;;9.00;7.57;;;;;;;;;;5011406;28;20046;-45
2021/09/14 06:25:27;;;;;;;9.10;7.32;;;;;;;;;;5012038;28;20046;-46
2021/09/14 06:27:57;;;;;;;10.02;7.30;;;;;;;;;;5011617;28;20048;-49
2021/09/14 06:30:29;;;;;;;12.80;7.75;;;;;;;;;;5007966;28;20061;-47
2021/09/14 06:32:56;;;;;;;9.50;7.40;;;;;;;;;;5009792;28;20045;-42
2021/09/14 06:35:23;;;;;;;9.93;7.82;;;;;;;;;;4990987;28;20046;-47
2021/09/14 06:37:50;;;;;;;10.23;7.22;;;;;;;;;;4992960;28;20396;-42
2021/09/14 06:40:16;;;;;;;11.32;7.90;;;;;;;;;;4995743;28;20034;-48
2021/09/14 06:42:44;;;;;;;11.63;7.50;;;;;;;;;;5008528;28;20053;-44
2021/09/14 06:45:46;;;;;;;10.18;7.60;;;;;;;;;;4987724;28;20060;-41
2021/09/14 06:48:29;;;;;;;12.07;7.28;;;;;;;;;;5001325;28;20512;-45
2021/09/14 06:50:56;;;;;;;7.85;6.80;;;;;;;;;;5008710;28;20041;-44
2021/09/14 06:53:26;;;;;;;10.98;7.05;;;;;;;;;;5009800;28;20142;-44
2021/09/14 06:55:53;;;;;;;9.80;7.10;;;;;;;;;;5012212;28;20097;-48
2021/09/14 06:58:20;;;;;;;9.40;7.43;;;;;;;;;;5010488;28;20038;-47
2021/09/14 07:00:47;;;;;;;7.75;5.97;;;;;;;;;;5009117;28;20635;-50
2021/09/14 07:03:14;;;;;;;8.85;6.18;;;;;;;;;;5009261;28;20042;-48
2021/09/14 07:05:42;;;;;;;12.15;6.60;;;;;;;;;;5011863;28;20038;-48
2021/09/14 07:08:09;;;;;;;10.65;6.43;;;;;;;;;;5012700;28;20069;-47
2021/09/14 07:10:38;;;;;;;9.57;6.78;;;;;;;;;;5012633;28;20058;-51
2021/09/14 07:13:05;;;;;;;10.82;6.75;;;;;;;;;;5001661;28;20046;-45
2021/09/14 07:15:32;;;;;;;14.93;6.63;;;;;;;;;;4992961;28;20050;-43
2021/09/14 07:17:59;;;;;;;17.35;6.63;;;;;;;;;;5012161;28;20075;-48
2021/09/14 07:20:26;;;;;;;11.65;6.32;;;;;;;;;;5012751;28;20475;-50
2021/09/14 07:22:53;;;;;;;8.88;6.18;;;;;;;;;;5007907;28;20042;-49
2021/09/14 07:25:20;;;;;;;11.63;6.63;;;;;;;;;;5011759;28;20117;-48
2021/09/14 07:27:46;;;;;;;8.40;5.80;;;;;;;;;;5012745;28;20045;-50
2021/09/14 07:30:13;;;;;;;7.60;5.90;;;;;;;;;;5011500;28;20522;-48
2021/09/14 07:32:40;;;;;;;9.77;6.25;;;;;;;;;;5007755;28;20136;-48
2021/09/14 07:35:07;;;;;;;7.13;5.68;;;;;;;;;;5010130;28;20049;-49
2021/09/14 07:37:34;;;;;;;10.05;6.30;;;;;;;;;;5010602;28;20038;-43
2021/09/14 07:40:01;;;;;;;7.75;6.07;;;;;;;;;;5011506;28;20046;-49
2021/09/14 07:42:29;;;;;;;9.10;7.18;;;;;;;;;;5011733;28;20423;-48
2021/09/14 07:44:56;;;;;;;8.45;6.47;;;;;;;;;;5001761;28;20048;-45
2021/09/14 07:47:26;;;;;;;10.82;7.20;;;;;;;;;;5007467;28;20053;-43
2021/09/14 07:49:53;;;;;;;7.85;6.15;;;;;;;;;;5011952;28;20038;-45
2021/09/14 07:52:20;;;;;;;8.90;5.90;;;;;;;;;;5012155;28;20041;-44
2021/09/14 07:54:47;;;;;;;10.15;6.40;;;;;;;;;;5002480;28;20074;-44
2021/09/14 07:57:14;;;;;;;9.18;6.03;;;;;;;;;;5006566;28;20145;-45
2021/09/14 07:59:41;;;;;;;8.85;6.25;;;;;;;;;;5011825;28;20092;-42
2021/09/14 08:02:08;;;;;;;12.00;6.25;;;;;;;;;;5010838;28;20419;-47
2021/09/14 08:04:35;;;;;;;9.43;6.20;;;;;;;;;;5004887;28;20121;-43
2021/09/14 08:07:02;;;;;;;9.10;7.55;;;;;;;;;;5011953;28;20385;-47
2021/09/14 08:09:30;;;;;;;13.32;7.45;;;;;;;;;;5011676;28;20435;-49
2021/09/14 08:11:58;;;;;;;14.20;9.75;;;;;;;;;;5011879;28;20050;-46
2021/09/14 08:14:25;;;;;;;22.52;17.48;;;;;;;;;;5007690;28;20096;-46
2021/09/14 08:16:51;;;;;;;13.75;8.90;;;;;;;;;;5011649;28;20053;-43
2021/09/14 08:19:18;;;;;;;18.85;13.52;;;;;;;;;;5011731;28;20034;-43
2021/09/14 08:21:45;;;;;;;11.13;7.53;;;;;;;;;;5011372;28;20034;-45
2021/09/14 08:24:13;;;;;;;9.73;8.05;;;;;;;;;;5010465;28;20041;-43
2021/09/14 08:26:40;;;;;;;9.52;7.63;;;;;;;;;;5014914;28;20499;-43
2021/09/14 08:29:08;;;;;;;13.07;9.35;;;;;;;;;;5011148;28;20116;-49
2021/09/14 08:31:34;;;;;;;47.97;32.42;;;;;;;;;;5001904;28;20095;-45
2021/09/14 08:34:01;;;;;;;48.65;30.63;;;;;;;;;;5010762;28;20051;-49
2021/09/14 08:36:29;;;;;;;7.93;6.32;;;;;;;;;;5010723;28;20057;-42
2021/09/14 08:38:56;;;;;;;11.82;5.90;;;;;;;;;;5011609;28;20076;-45
2021/09/14 08:41:22;;;;;;;8.13;5.50;;;;;;;;;;5015800;28;20042;-43
2021/09/14 08:43:50;;;;;;;7.07;5.35;;;;;;;;;;5011199;28;20038;-44
2021/09/14 08:46:18;;;;;;;10.25;6.32;;;;;;;;;;5009729;28;20410;-43
2021/09/14 08:48:46;;;;;;;9.30;6.32;;;;;;;;;;5011260;28;20115;-41
2021/09/14 08:51:13;;;;;;;8.15;5.97;;;;;;;;;;5011029;28;20112;-43
2021/09/14 08:53:40;;;;;;;9.95;5.65;;;;;;;;;;5011871;28;20058;-47
2021/09/14 08:56:08;;;;;;;7.97;5.95;;;;;;;;;;5012152;28;20046;-42
2021/09/14 08:58:35;;;;;;;7.15;5.75;;;;;;;;;;5011732;28;20164;-42
2021/09/14 09:01:08;;;;;;;8.65;5.75;;;;;;;;;;5011463;28;20097;-43
2021/09/14 09:03:35;;;;;;;;;;;;;;;;;;5004923;28;20399;-43
2021/09/14 09:06:02;;;;;;;6.82;5.35;;;;;;;;;;5010426;28;19971;-42
2021/09/14 09:08:29;;;;;;;6.68;5.32;;;;;;;;;;5012037;28;20125;-42
2021/09/14 09:11:12;;;;;;;8.75;6.65;;;;;;;;;;5011361;28;20422;-42
2021/09/14 09:13:39;;;;;;;;;;;;;;;;;;4994021;28;20046;-46
2021/09/14 09:16:16;;;;;;;9.20;5.47;;;;;;;;;;5007297;28;19921;-49
2021/09/14 09:18:57;;;;;;;7.72;5.43;;;;;;;;;;5006636;28;20049;-47
2021/09/14 09:21:31;;;;;;;7.10;4.82;;;;;;;;;;5011747;28;20492;-48
2021/09/14 09:23:59;;;;;;;9.07;5.78;;;;;;;;;;5009060;28;20085;-52
2021/09/14 09:26:45;;;;;;;7.05;5.10;;;;;;;;;;5006380;28;20440;-46
2021/09/14 09:29:18;;;;;;;7.65;5.30;;;;;;;;;;4997712;28;20709;-44
2021/09/14 09:31:46;;;;;;;7.68;5.05;;;;;;;;;;5010926;28;20042;-44
2021/09/14 09:34:13;;;;;;;15.15;6.65;;;;;;;;;;5003860;28;20129;-46
2021/09/14 09:36:41;;;;;;;7.03;5.63;;;;;;;;;;5009514;28;20049;-44
2021/09/14 09:39:10;;;;;;;8.88;5.50;;;;;;;;;;5012155;28;20072;-44
2021/09/14 09:41:40;;;;;;;11.75;5.95;;;;;;;;;;4997838;28;20045;-52
2021/09/14 09:44:08;;;;;;;7.05;5.20;;;;;;;;;;5011591;28;20104;-51
2021/09/14 09:46:36;;;;;;;7.40;5.18;;;;;;;;;;5010426;28;20061;-49
2021/09/14 09:49:07;;;;;;;7.00;5.88;;;;;;;;;;5014807;28;20547;-51
2021/09/14 09:51:34;;;;;;;8.68;5.50;;;;;;;;;;5014572;28;20482;-52
2021/09/14 09:54:02;;;;;;;11.30;8.15;;;;;;;;;;5007968;28;20041;-49
2021/09/14 09:56:32;;;;;;;8.20;5.70;;;;;;;;;;5014094;28;20054;-50
2021/09/14 09:59:01;;;;;;;8.65;5.35;;;;;;;;;;5026430;28;20133;-51
2021/09/14 10:01:28;;;;;;;9.43;4.90;;;;;;;;;;5014784;28;20038;-50
2021/09/14 10:04:17;;;;;;;6.05;5.38;;;;;;;;;;5013451;28;20072;-53
2021/09/14 10:06:47;;;;;;;6.85;5.15;;;;;;;;;;5003683;28;20038;-49
2021/09/14 10:09:14;;;;;;;8.90;5.13;;;;;;;;;;5014382;28;20053;-50
2021/09/14 10:11:41;;;;;;;6.78;5.28;;;;;;;;;;5014397;28;20713;-49
2021/09/14 10:14:12;;;;;;;9.13;5.30;;;;;;;;;;5012674;28;20041;-50
2021/09/14 10:16:44;;;;;;;6.13;5.00;;;;;;;;;;5013946;28;20042;-55
2021/09/14 10:19:13;;;;;;;8.25;5.63;;;;;;;;;;5014461;28;20128;-51
2021/09/14 10:21:41;;;;;;;5.90;5.25;;;;;;;;;;5001804;28;20500;-51
2021/09/14 10:24:22;;;;;;;7.28;4.60;;;;;;;;;;4994367;28;20415;-54
2021/09/14 10:27:01;;;;;;;7.82;4.53;;;;;;;;;;4980770;28;20046;-54
2021/09/14 10:29:28;;;;;;;5.72;4.80;;;;;;;;;;5008943;28;20069;-53
2021/09/14 10:32:02;;;;;;;6.95;4.68;;;;;;;;;;4994588;28;20416;-50
2021/09/14 10:34:33;;;;;;;6.53;4.57;;;;;;;;;;4993026;28;20466;-50
2021/09/14 10:37:05;;;;;;;8.32;4.70;;;;;;;;;;4993234;28;20120;-52
2021/09/14 10:39:33;;;;;;;5.82;5.00;;;;;;;;;;4994605;28;20042;-53
2021/09/14 10:42:00;;;;;;;6.15;5.13;;;;;;;;;;4994526;28;20048;-52
2021/09/14 10:44:31;;;;;;;8.30;5.10;;;;;;;;;;4994127;28;20093;-49
2021/09/14 10:47:11;;;;;;;6.38;5.00;;;;;;;;;;4994449;28;20488;-49
2021/09/14 10:49:47;;;;;;;5.53;4.93;;;;;;;;;;4999744;28;20088;-53
2021/09/14 10:52:15;;;;;;;5.82;5.22;;;;;;;;;;5006064;28;20085;-50
2021/09/14 10:54:50;;;;;;;5.90;4.90;;;;;;;;;;4993725;28;20051;-50
2021/09/14 10:57:22;;;;;;;5.25;4.75;;;;;;;;;;4994398;28;20074;-50
2021/09/14 10:59:52;;;;;;;7.63;5.18;;;;;;;;;;5015470;28;20099;-52
2021/09/14 11:02:23;;;;;;;5.13;4.60;;;;;;;;;;5006604;28;20038;-52
2021/09/14 11:04:50;;;;;;;6.03;5.03;;;;;;;;;;5003154;28;20062;-50
2021/09/14 11:07:20;;;;;;;5.97;4.88;;;;;;;;;;5008625;28;20066;-53
2021/09/14 11:09:53;;;;;;;5.25;4.75;;;;;;;;;;5013032;28;20126;-50
2021/09/14 11:12:28;;;;;;;6.90;4.53;;;;;;;;;;5012754;28;20049;-49
2021/09/14 11:14:55;;;;;;;6.70;5.20;;;;;;;;;;5009531;28;20050;-50
2021/09/14 11:17:23;;;;;;;6.25;4.28;;;;;;;;;;5011641;28;20076;-50
2021/09/14 11:19:52;;;;;;;5.70;4.78;;;;;;;;;;5012982;28;20045;-49
2021/09/14 11:22:31;;;;;;;5.97;4.95;;;;;;;;;;5018808;28;20038;-49
2021/09/14 11:24:59;;;;;;;6.05;5.00;;;;;;;;;;4993341;28;20046;-47
2021/09/14 11:27:26;;;;;;;5.20;4.70;;;;;;;;;;5003561;28;20451;-51
2021/09/14 11:29:54;;;;;;;6.25;4.50;;;;;;;;;;5031764;23;20515;-45
2021/09/14 11:32:21;;;;;;;5.78;4.90;;;;;;;;;;4987134;28;20129;-48
2021/09/14 11:34:52;;;;;;;6.22;4.30;;;;;;;;;;4972719;28;20051;-50
2021/09/14 11:37:25;;;;;;;7.00;4.90;;;;;;;;;;4982046;28;20062;-50
2021/09/14 11:39:53;;;;;;;5.85;4.53;;;;;;;;;;4989729;28;20073;-49
2021/09/14 11:42:20;;;;;;;5.60;4.22;;;;;;;;;;4986227;28;20031;-49
2021/09/14 11:44:47;;;;;;;5.25;4.30;;;;;;;;;;4983229;28;20574;-50
2021/09/14 11:47:14;;;;;;;7.15;4.28;;;;;;;;;;4990045;28;20046;-50
2021/09/14 11:49:49;;;;;;;6.55;4.45;;;;;;;;;;4976918;28;20101;-52
2021/09/14 11:52:17;;;;;;;6.88;4.75;;;;;;;;;;4987103;28;20053;-48
2021/09/14 11:54:44;;;;;;;7.30;4.97;;;;;;;;;;4972798;28;20053;-46
2021/09/14 11:57:18;;;;;;;6.43;4.55;;;;;;;;;;4973165;28;20067;-49
2021/09/14 11:59:45;;;;;;;7.00;4.22;;;;;;;;;;4969797;28;20035;-49
2021/09/14 12:02:15;;;;;;;4.63;4.22;;;;;;;;;;4953902;28;20549;-48
2021/09/14 12:04:41;;;;;;;8.00;4.60;;;;;;;;;;4957895;28;20038;-50
2021/09/14 12:07:15;;;;;;;9.55;4.85;;;;;;;;;;4973181;28;20130;-49
2021/09/14 12:09:43;;;;;;;7.32;4.88;;;;;;;;;;4973175;28;20078;-49
2021/09/14 12:12:11;;;;;;;5.45;4.18;;;;;;;;;;4972673;28;20078;-50
2021/09/14 12:14:38;;;;;;;6.25;4.53;;;;;;;;;;4953650;28;20051;-48
2021/09/14 12:17:05;;;;;;;4.78;4.30;;;;;;;;;;4954014;28;20142;-46
2021/09/14 12:19:33;;;;;;;6.15;4.88;;;;;;;;;;4953482;28;20130;-52
2021/09/14 12:22:00;;;;;;;6.05;4.60;;;;;;;;;;4953149;28;20039;-44
2021/09/14 12:24:27;;;;;;;5.78;4.40;;;;;;;;;;4952876;28;20046;-46
2021/09/14 12:26:58;;;;;;;5.15;4.00;;;;;;;;;;4953284;28;20067;-43
2021/09/14 12:29:25;;;;;;;5.50;4.40;;;;;;;;;;4953507;28;20130;-44
2021/09/14 12:31:53;;;;;;;6.43;4.72;;;;;;;;;;4952965;28;20044;-44
2021/09/14 12:34:20;;;;;;;7.45;4.55;;;;;;;;;;4953055;28;20043;-44
2021/09/14 12:36:46;;;;;;;4.88;4.32;;;;;;;;;;4951837;28;20082;-43
2021/09/14 12:39:13;;;;;;;5.13;4.47;;;;;;;;;;4953023;28;20043;-44
2021/09/14 12:41:40;;;;;;;5.40;4.28;;;;;;;;;;4951738;28;20051;-45
2021/09/14 12:44:07;;;;;;;5.80;4.32;;;;;;;;;;4952721;28;20078;-45
2021/09/14 12:46:33;;;;;;;4.70;4.20;;;;;;;;;;4953074;28;20066;-49
2021/09/14 12:49:02;;;;;;;5.38;4.45;;;;;;;;;;4953059;28;20053;-47
2021/09/14 12:51:28;;;;;;;7.35;4.28;;;;;;;;;;4952884;28;20134;-44
2021/09/14 12:53:56;;;;;;;7.55;4.97;;;;;;;;;;4952739;28;20126;-46
2021/09/14 12:56:22;;;;;;;7.35;4.78;;;;;;;;;;4953058;28;20126;-46
2021/09/14 12:58:49;;;;;;;5.22;4.00;;;;;;;;;;4952834;28;20054;-44
2021/09/14 13:01:16;;;;;;;5.78;4.10;;;;;;;;;;4952791;28;20053;-45
2021/09/14 13:03:43;;;;;;;5.53;4.22;;;;;;;;;;4952699;28;20552;-45
2021/09/14 13:06:11;;;;;;;4.93;4.30;;;;;;;;;;4952830;28;20427;-47
2021/09/14 13:08:38;;;;;;;5.25;4.00;;;;;;;;;;4953168;28;20410;-43
2021/09/14 13:11:04;;;;;;;6.25;5.00;;;;;;;;;;4952647;28;20070;-45
2021/09/14 13:16:17;;;;;;;6.38;4.30;;;;;;;;;;4975889;28;20511;-44
2021/09/14 13:18:45;;;;;;;6.47;4.50;;;;;;;;;;4975614;28;20049;-46
2021/09/14 13:21:12;;;;;;;5.43;4.63;;;;;;;;;;4975557;28;20561;-43
2021/09/14 13:23:40;;;;;;;5.45;4.47;;;;;;;;;;4967100;28;20043;-44
2021/09/14 13:26:07;;;;;;;5.43;4.75;;;;;;;;;;4956155;28;20396;-45
2021/09/14 13:28:34;;;;;;;6.68;4.97;;;;;;;;;;4956278;28;20043;-45
2021/09/14 13:31:02;;;;;;;6.82;4.55;;;;;;;;;;4971077;28;20122;-45
2021/09/14 13:33:29;;;;;;;5.30;4.50;;;;;;;;;;4955548;28;20074;-44
2021/09/14 13:35:56;;;;;;;5.90;4.70;;;;;;;;;;4969753;28;20074;-43
2021/09/14 13:38:23;;;;;;;6.30;4.72;;;;;;;;;;4975395;28;20070;-42
2021/09/14 13:40:53;;;;;;;7.57;4.95;;;;;;;;;;4975534;28;20062;-45
2021/09/14 13:43:58;;;;;;;7.90;4.60;;;;;;;;;;4968707;28;20122;-44
2021/09/14 13:46:16;;;;;;;;;;;;;;;;;;4955383;28;20050;-44
2021/09/14 13:48:42;;;;;;;5.35;4.72;;;;;;;;;;4956430;28;19945;-44
2021/09/14 13:51:11;;;;;;;6.40;4.60;;;;;;;;;;4955886;28;20047;-45
2021/09/14 13:53:42;;;;;;;7.47;4.60;;;;;;;;;;4955410;28;20101;-45
2021/09/14 13:56:10;;;;;;;9.68;4.40;;;;;;;;;;4955909;28;20043;-43
2021/09/14 13:58:37;;;;;;;6.82;4.88;;;;;;;;;;4955701;28;20055;-44
2021/09/14 14:01:04;;;;;;;5.72;4.70;;;;;;;;;;4958139;28;20071;-47
2021/09/14 14:03:32;;;;;;;5.65;4.65;;;;;;;;;;4955506;28;20050;-43
2021/09/14 14:05:59;;;;;;;5.63;4.68;;;;;;;;;;4955426;28;20043;-45
2021/09/14 14:08:26;;;;;;;6.05;4.72;;;;;;;;;;4955509;28;20902;-43
2021/09/14 14:10:56;;;;;;;5.35;4.85;;;;;;;;;;4955290;28;20114;-42
2021/09/14 14:13:23;;;;;;;6.72;4.60;;;;;;;;;;4954898;28;20063;-48
2021/09/14 14:15:50;;;;;;;6.88;4.85;;;;;;;;;;4955424;28;20102;-45
2021/09/14 14:18:17;;;;;;;6.28;4.72;;;;;;;;;;4955027;28;20086;-48
2021/09/14 14:20:43;;;;;;;6.25;4.45;;;;;;;;;;4955110;28;20213;-44
2021/09/14 14:23:11;;;;;;;6.95;4.68;;;;;;;;;;4963220;28;20058;-45
2021/09/14 14:25:39;;;;;;;9.25;4.63;;;;;;;;;;4973297;28;20046;-44
2021/09/14 14:28:05;;;;;;;5.78;4.90;;;;;;;;;;4974032;28;20039;-48
2021/09/14 14:30:32;;;;;;;6.60;4.88;;;;;;;;;;4973884;28;20074;-43
2021/09/14 14:32:59;;;;;;;6.13;4.53;;;;;;;;;;4963111;28;20132;-44
2021/09/14 14:35:26;;;;;;;6.53;4.82;;;;;;;;;;4954586;28;20051;-47
2021/09/14 14:37:54;;;;;;;8.77;6.03;;;;;;;;;;4955022;28;20047;-45
2021/09/14 14:40:22;;;;;;;5.70;5.10;;;;;;;;;;4954872;28;20063;-44
2021/09/14 14:42:49;;;;;;;5.65;4.75;;;;;;;;;;4960173;28;20131;-43
2021/09/14 14:45:16;;;;;;;8.50;5.00;;;;;;;;;;4973983;28;20043;-44
2021/09/14 14:47:49;;;;;;;7.00;5.15;;;;;;;;;;4974104;28;20419;-44
2021/09/14 14:50:17;;;;;;;5.63;4.65;;;;;;;;;;4974102;28;20054;-47
2021/09/14 14:52:44;;;;;;;5.95;4.97;;;;;;;;;;4964908;28;20517;-49
2021/09/14 14:55:11;;;;;;;6.70;5.25;;;;;;;;;;4954452;28;20134;-44
2021/09/14 14:57:38;;;;;;;6.80;4.95;;;;;;;;;;4954612;29;20082;-53
2021/09/14 15:00:06;;;;;;;6.75;5.03;;;;;;;;;;4961145;28;20101;-47
2021/09/14 15:02:33;;;;;;;5.75;4.70;;;;;;;;;;4973876;28;20137;-44
2021/09/14 15:05:02;;;;;;;5.88;4.90;;;;;;;;;;4965407;28;20094;-45
2021/09/14 15:07:28;;;;;;;5.63;5.00;;;;;;;;;;4954481;28;20126;-45
2021/09/14 15:09:56;;;;;;;7.53;4.93;;;;;;;;;;4954558;28;20150;-45
2021/09/14 15:12:23;;;;;;;7.18;4.72;;;;;;;;;;4954559;28;20079;-45
2021/09/14 15:14:50;;;;;;;5.53;4.70;;;;;;;;;;4936738;29;20094;-44
2021/09/14 15:17:17;;;;;;;7.05;4.90;;;;;;;;;;4954444;28;20126;-48
2021/09/14 15:19:44;;;;;;;7.25;4.90;;;;;;;;;;4954069;28;20133;-44
2021/09/14 15:22:11;;;;;;;6.18;4.88;;;;;;;;;;4952645;28;20106;-49
2021/09/14 15:24:38;;;;;;;6.85;4.47;;;;;;;;;;4953617;28;20390;-51
2021/09/14 15:27:05;;;;;;;5.80;4.38;;;;;;;;;;4954190;28;20093;-48
2021/09/14 15:29:32;;;;;;;8.05;4.90;;;;;;;;;;4954061;28;20074;-51
2021/09/14 15:32:00;;;;;;;6.07;4.75;;;;;;;;;;4953629;28;20091;-50
2021/09/14 15:34:31;;;;;;;6.70;4.85;;;;;;;;;;4953515;28;20039;-50
2021/09/14 15:36:58;;;;;;;7.45;4.50;;;;;;;;;;4954114;28;20488;-48
2021/09/14 15:39:25;;;;;;;5.55;4.90;;;;;;;;;;4936881;29;20107;-50
2021/09/14 15:41:52;;;;;;;6.35;5.47;;;;;;;;;;4954481;28;20074;-49
2021/09/14 15:44:19;;;;;;;8.65;5.28;;;;;;;;;;4973084;28;20521;-50